CYVR

Vancouver International Airport

Vancouver, , Canada
METAR CYVR 180848Z 30009KT 5SM BR SCT003 OVC005 07/06 A2988 RMK SF3SF5 SLP120
Observed Flight Rules
Dec-18 @ 08:48 UTC (16 minutes ago) Instrument Flight Rules
Wind Visibility Clouds Conditions
300° at 9 knots 5 miles
  • Scattered at 300' AGL
  • Overcast at 500' AGL
  • Mist
Temperatures Readings
Current 7°C / 45°F
Dewpoint 6°C / 43°F
Humidity 93%
Altimeter 29.88" Hg
Pressure 1012 hPa
Elevation 2
METAR CYVR 180848Z 30009KT 5SM BR SCT003 OVC005 07/06 A2988 RMK SF3SF5 SLP120
Observed Flight Rules
Dec-18 @ 08:48 UTC
(16 minutes ago)
IFR
Wind Visibility
300° at 9 knots 5 miles
Clouds
  • Scattered at 300' AGL
  • Overcast at 500' AGL
Conditions
  • Mist
Temperature Dewpoint
7°C / 45°F 6°C / 43°F
Humidity Altimeter Pressure
93% 29.88" Hg 1012 hPa